createdAt,value
2023-09-09T00:00:00.407Z,3.53
2023-09-09T00:02:27.357Z,3.33
2023-09-09T00:04:55.347Z,3.33
2023-09-09T00:07:22.784Z,3.40
2023-09-09T00:09:50.641Z,3.77
2023-09-09T00:12:17.359Z,3.60
2023-09-09T00:14:44.019Z,3.70
2023-09-09T00:17:10.736Z,3.73
2023-09-09T00:19:37.354Z,4.07
2023-09-09T00:22:04.177Z,4.07
2023-09-09T00:24:30.864Z,3.80
2023-09-09T00:26:59.980Z,3.80
2023-09-09T00:29:26.623Z,3.50
2023-09-09T00:31:53.285Z,3.93
2023-09-09T00:34:20.101Z,3.40
2023-09-09T00:36:46.734Z,3.53
2023-09-09T00:39:13.318Z,3.93
2023-09-09T00:41:39.888Z,4.00
2023-09-09T00:44:09.428Z,3.20
2023-09-09T00:46:36.499Z,3.60
2023-09-09T00:49:04.664Z,4.00
2023-09-09T00:51:32.184Z,3.27
2023-09-09T00:53:59.199Z,3.83
2023-09-09T00:56:25.890Z,3.80
2023-09-09T00:58:52.944Z,3.37
2023-09-09T01:01:19.677Z,3.80
2023-09-09T01:03:46.790Z,3.70
2023-09-09T01:06:13.531Z,3.53
2023-09-09T01:08:40.119Z,3.90
2023-09-09T01:11:06.949Z,3.60
2023-09-09T01:13:36.142Z,3.87
2023-09-09T01:16:03.625Z,3.80
2023-09-09T01:18:32.424Z,3.60
2023-09-09T01:21:07.759Z,3.87
2023-09-09T01:23:35.958Z,3.80
2023-09-09T01:26:03.550Z,3.97
2023-09-09T01:28:30.228Z,3.70
2023-09-09T01:30:56.918Z,3.90
2023-09-09T01:33:23.664Z,3.50
2023-09-09T01:35:50.336Z,3.50
2023-09-09T01:38:17.040Z,3.80
2023-09-09T01:40:43.631Z,3.57
2023-09-09T01:43:10.325Z,3.40
2023-09-09T01:45:37.014Z,3.70
2023-09-09T01:48:05.959Z,3.43
2023-09-09T01:50:33.020Z,3.73
2023-09-09T01:53:00.160Z,3.83
2023-09-09T01:55:27.010Z,3.87
2023-09-09T01:57:53.728Z,3.67
2023-09-09T02:00:20.349Z,4.43
2023-09-09T02:02:47.172Z,3.37
2023-09-09T02:05:13.837Z,3.50
2023-09-09T02:07:40.594Z,4.00
2023-09-09T02:10:09.021Z,3.37
2023-09-09T02:12:36.849Z,3.90
2023-09-09T02:15:03.785Z,3.50
2023-09-09T02:17:30.492Z,3.47
2023-09-09T02:19:58.068Z,3.80
2023-09-09T02:22:25.133Z,3.83
2023-09-09T02:24:56.648Z,4.03
2023-09-09T02:27:24.123Z,3.83
2023-09-09T02:29:51.641Z,3.70
2023-09-09T02:32:19.134Z,3.90
2023-09-09T02:34:46.200Z,4.10
2023-09-09T02:37:18.013Z,3.60
2023-09-09T02:39:45.935Z,3.30
2023-09-09T02:42:14.971Z,4.10
2023-09-09T02:44:45.582Z,3.50
2023-09-09T02:47:13.804Z,3.80
2023-09-09T02:49:41.542Z,3.70
2023-09-09T02:52:08.538Z,3.70
2023-09-09T02:54:35.878Z,3.77
2023-09-09T02:57:04.879Z,3.80
2023-09-09T02:59:34.079Z,3.83
2023-09-09T03:02:01.619Z,3.57
2023-09-09T03:04:28.364Z,3.53
2023-09-09T03:06:55.098Z,3.70
2023-09-09T03:09:26.130Z,3.90
2023-09-09T03:11:55.025Z,3.60
2023-09-09T03:14:21.737Z,3.60
2023-09-09T03:16:48.420Z,3.67
2023-09-09T03:19:15.026Z,3.30
2023-09-09T03:21:41.740Z,4.07
2023-09-09T03:24:08.462Z,3.57
2023-09-09T03:26:35.174Z,3.67
2023-09-09T03:29:01.782Z,3.73
2023-09-09T03:31:28.449Z,3.37
2023-09-09T03:33:55.104Z,3.50
2023-09-09T03:36:21.751Z,3.00
2023-09-09T03:38:48.399Z,3.80
2023-09-09T03:41:14.987Z,3.53
2023-09-09T03:43:42.171Z,3.50
2023-09-09T03:46:09.465Z,3.70
2023-09-09T03:48:36.210Z,4.47
2023-09-09T03:51:04.042Z,3.73
2023-09-09T03:53:30.803Z,3.50
2023-09-09T03:56:00.163Z,4.07
2023-09-09T03:58:26.854Z,3.57
2023-09-09T04:01:05.201Z,3.23
2023-09-09T04:03:35.090Z,3.57
2023-09-09T04:06:07.741Z,3.77
2023-09-09T04:08:35.790Z,3.60
2023-09-09T04:11:04.212Z,3.27
2023-09-09T04:13:31.543Z,3.70
2023-09-09T04:15:59.277Z,3.50
2023-09-09T04:18:44.165Z,3.53
2023-09-09T04:21:12.933Z,3.50
2023-09-09T04:23:40.182Z,3.87
2023-09-09T04:26:07.599Z,3.37
2023-09-09T04:28:34.583Z,3.40
2023-09-09T04:31:01.367Z,3.87
2023-09-09T04:33:28.102Z,3.50
2023-09-09T04:35:54.868Z,3.83
2023-09-09T04:38:24.005Z,3.13
2023-09-09T04:40:50.594Z,3.47
2023-09-09T04:43:19.049Z,3.10
2023-09-09T04:45:45.809Z,3.57
2023-09-09T04:48:12.599Z,3.43
2023-09-09T04:50:39.263Z,3.33
2023-09-09T04:53:06.652Z,3.57
2023-09-09T04:55:33.310Z,3.30
2023-09-09T04:57:59.959Z,3.73
2023-09-09T05:00:26.641Z,3.47
2023-09-09T05:02:53.366Z,3.83
2023-09-09T05:05:20.086Z,3.17
2023-09-09T05:07:46.729Z,3.47
2023-09-09T05:10:14.620Z,3.43
2023-09-09T05:12:42.910Z,3.50
2023-09-09T05:15:11.476Z,3.30
2023-09-09T05:17:38.163Z,3.60
2023-09-09T05:20:05.685Z,3.73
2023-09-09T05:22:32.513Z,3.60
2023-09-09T05:24:59.101Z,3.20
2023-09-09T05:27:25.712Z,3.33
2023-09-09T05:29:52.382Z,4.10
2023-09-09T05:32:19.316Z,3.53
2023-09-09T05:34:45.999Z,3.47
2023-09-09T05:37:12.709Z,3.30
2023-09-09T05:39:39.286Z,3.57
2023-09-09T05:42:07.434Z,3.60
2023-09-09T05:44:37.796Z,3.57
2023-09-09T05:47:07.960Z,3.60
2023-09-09T05:49:39.529Z,3.70
2023-09-09T05:52:07.935Z,3.63
2023-09-09T05:54:34.534Z,3.53
2023-09-09T05:57:01.495Z,3.93
2023-09-09T05:59:28.180Z,3.50
2023-09-09T06:01:54.902Z,3.27
2023-09-09T06:04:21.719Z,3.73
2023-09-09T06:06:49.319Z,3.73
2023-09-09T06:09:16.305Z,3.70
2023-09-09T06:11:42.914Z,3.03
2023-09-09T06:14:09.574Z,3.70
2023-09-09T06:16:36.253Z,3.27
2023-09-09T06:19:03.110Z,3.60
2023-09-09T06:21:29.775Z,3.77
2023-09-09T06:23:56.493Z,3.63
2023-09-09T06:26:23.090Z,3.83
2023-09-09T06:28:49.824Z,3.33
2023-09-09T06:31:16.566Z,3.77
2023-09-09T06:33:45.226Z,3.80
2023-09-09T06:36:12.314Z,3.83
2023-09-09T06:38:39.009Z,3.10
2023-09-09T06:41:05.780Z,3.40
2023-09-09T06:43:32.362Z,3.50
2023-09-09T06:46:00.888Z,4.07
2023-09-09T06:48:27.792Z,3.93
2023-09-09T06:50:54.472Z,3.77
2023-09-09T06:53:21.153Z,3.70
2023-09-09T06:55:48.809Z,3.47
2023-09-09T06:58:15.725Z,3.77
2023-09-09T07:00:53.013Z,3.43
2023-09-09T07:03:20.799Z,3.33
2023-09-09T07:05:47.845Z,4.00
2023-09-09T07:08:14.552Z,3.20
2023-09-09T07:10:49.882Z,3.53
2023-09-09T07:13:16.812Z,3.10
2023-09-09T07:15:43.414Z,3.47
2023-09-09T07:18:10.138Z,3.37
2023-09-09T07:20:36.883Z,3.70
2023-09-09T07:23:03.727Z,3.63
2023-09-09T07:25:30.742Z,3.77
2023-09-09T07:27:57.587Z,3.73
2023-09-09T07:30:24.163Z,3.57
2023-09-09T07:32:50.897Z,3.40
2023-09-09T07:35:17.634Z,3.50
2023-09-09T07:37:44.246Z,3.30
2023-09-09T07:40:11.625Z,3.60
2023-09-09T07:42:38.175Z,3.23
2023-09-09T07:45:05.167Z,4.17
2023-09-09T07:47:31.755Z,4.20
2023-09-09T07:49:58.367Z,3.30
2023-09-09T07:52:25.066Z,4.23
2023-09-09T07:54:53.324Z,3.57
2023-09-09T07:57:20.248Z,3.70
2023-09-09T07:59:48.913Z,3.97
2023-09-09T08:02:15.689Z,3.67
2023-09-09T08:04:42.302Z,4.00
2023-09-09T08:07:09.548Z,3.80
2023-09-09T08:09:36.215Z,3.60
2023-09-09T08:12:02.835Z,2.87
2023-09-09T08:14:29.486Z,3.40
2023-09-09T08:16:56.487Z,3.17
2023-09-09T08:19:23.324Z,3.00
2023-09-09T08:21:50.403Z,3.30
2023-09-09T08:24:17.058Z,4.17
2023-09-09T08:26:43.654Z,3.43
2023-09-09T08:29:10.321Z,3.40
2023-09-09T08:31:37.259Z,3.70
2023-09-09T08:34:03.911Z,3.30
2023-09-09T08:36:30.555Z,3.63
2023-09-09T08:38:58.443Z,2.97
2023-09-09T08:42:09.176Z,3.93
2023-09-09T08:45:10.160Z,3.30
2023-09-09T08:47:38.293Z,3.60
2023-09-09T08:50:06.215Z,3.30
2023-09-09T08:52:33.217Z,3.20
2023-09-09T08:55:00.868Z,3.63
2023-09-09T08:57:29.365Z,3.33
2023-09-09T08:59:58.057Z,3.47
2023-09-09T09:02:24.847Z,3.40
2023-09-09T09:04:53.930Z,3.37
2023-09-09T09:07:21.475Z,3.40
2023-09-09T09:09:48.137Z,3.47
2023-09-09T09:12:15.750Z,3.20
2023-09-09T09:14:47.425Z,3.63
2023-09-09T09:17:18.145Z,3.10
2023-09-09T09:19:44.973Z,3.30
2023-09-09T09:22:15.454Z,3.30
2023-09-09T09:24:46.625Z,3.43
2023-09-09T09:27:14.790Z,3.40
2023-09-09T09:29:43.320Z,3.80
2023-09-09T09:32:13.820Z,3.63
2023-09-09T09:34:40.530Z,3.13
2023-09-09T09:37:14.193Z,3.47
2023-09-09T09:39:41.080Z,3.20
2023-09-09T09:42:11.883Z,3.30
2023-09-09T09:44:38.722Z,3.70
2023-09-09T09:47:07.336Z,3.77
2023-09-09T09:49:35.449Z,3.33
2023-09-09T09:52:04.134Z,3.50
2023-09-09T09:54:34.753Z,3.60
2023-09-09T09:57:03.405Z,3.10
2023-09-09T09:59:32.447Z,3.40
2023-09-09T10:02:01.064Z,3.80
2023-09-09T10:04:29.170Z,3.50
2023-09-09T10:06:58.402Z,3.63
2023-09-09T10:09:41.480Z,3.70
2023-09-09T10:12:46.462Z,3.17
2023-09-09T10:15:17.506Z,3.27
2023-09-09T10:17:45.673Z,3.73
2023-09-09T10:20:12.929Z,3.50
2023-09-09T10:22:42.216Z,3.60
2023-09-09T10:25:11.554Z,3.43
2023-09-09T10:27:40.223Z,3.80
2023-09-09T10:30:08.988Z,3.80
2023-09-09T10:32:36.715Z,3.50
2023-09-09T10:35:07.069Z,3.73
2023-09-09T10:37:35.972Z,3.70
2023-09-09T10:40:04.647Z,3.50
2023-09-09T10:42:32.815Z,3.60
2023-09-09T10:45:42.519Z,3.47
2023-09-09T10:48:11.482Z,3.67
2023-09-09T10:50:39.392Z,3.00
2023-09-09T10:53:28.892Z,3.50
2023-09-09T10:56:00.312Z,3.67
2023-09-09T10:58:34.998Z,3.90
2023-09-09T11:01:02.482Z,3.60
2023-09-09T11:03:52.250Z,3.40
2023-09-09T11:06:28.771Z,3.40
2023-09-09T11:08:57.496Z,3.30
2023-09-09T11:11:31.738Z,3.83
2023-09-09T11:14:03.979Z,3.70
2023-09-09T11:16:37.918Z,4.10
2023-09-09T11:19:09.910Z,3.27
2023-09-09T11:21:40.212Z,3.37
2023-09-09T11:24:07.429Z,3.70
2023-09-09T11:26:38.538Z,3.90
2023-09-09T11:29:05.983Z,3.40
2023-09-09T11:31:34.136Z,3.67
2023-09-09T11:34:00.993Z,3.60
2023-09-09T11:36:29.252Z,3.60
2023-09-09T11:39:04.685Z,3.57
2023-09-09T11:41:36.346Z,3.80
2023-09-09T11:44:07.621Z,3.33
2023-09-09T11:46:41.301Z,3.73
2023-09-09T11:49:08.599Z,3.50
2023-09-09T11:51:35.908Z,3.30
2023-09-09T11:54:04.259Z,3.40
2023-09-09T11:56:33.932Z,3.77
2023-09-09T11:59:11.277Z,3.53
2023-09-09T12:01:45.758Z,3.60
2023-09-09T12:04:14.097Z,3.47
2023-09-09T12:06:43.918Z,3.23
2023-09-09T12:09:11.084Z,4.03
2023-09-09T12:11:39.781Z,3.60
2023-09-09T12:14:06.776Z,3.33
2023-09-09T12:16:34.463Z,4.00
2023-09-09T12:19:01.155Z,3.13
2023-09-09T12:21:27.920Z,3.20
2023-09-09T12:23:59.607Z,3.53
2023-09-09T12:26:27.490Z,2.70
2023-09-09T12:29:11.773Z,3.03
2023-09-09T12:31:53.288Z,3.27
2023-09-09T12:34:21.456Z,3.27
2023-09-09T12:36:49.316Z,2.83
2023-09-09T12:39:34.102Z,3.47
2023-09-09T12:42:06.013Z,3.20
2023-09-09T12:44:34.341Z,2.97
2023-09-09T12:47:05.108Z,3.00
2023-09-09T12:49:33.746Z,3.20
2023-09-09T12:52:00.504Z,3.47
2023-09-09T12:54:27.252Z,3.07
2023-09-09T12:56:54.048Z,3.23
2023-09-09T12:59:20.790Z,3.53
2023-09-09T13:01:49.651Z,3.53
2023-09-09T13:04:16.283Z,2.90
2023-09-09T13:06:43.017Z,3.33
2023-09-09T13:09:09.715Z,3.13
2023-09-09T13:11:36.328Z,3.37
2023-09-09T13:14:12.953Z,3.40
2023-09-09T13:16:42.908Z,2.97
2023-09-09T13:19:09.695Z,3.27
2023-09-09T13:21:36.300Z,3.47
2023-09-09T13:24:02.983Z,3.30
2023-09-09T13:26:29.708Z,2.80
2023-09-09T13:28:56.284Z,3.20
2023-09-09T13:31:22.950Z,3.33
2023-09-09T13:33:49.631Z,3.13
2023-09-09T13:36:16.378Z,2.93
2023-09-09T13:38:43.462Z,3.00
2023-09-09T13:41:10.042Z,3.67
2023-09-09T13:43:37.094Z,3.50
2023-09-09T13:46:03.812Z,3.40
2023-09-09T13:48:30.478Z,3.27
2023-09-09T13:50:57.157Z,3.13
2023-09-09T13:53:23.768Z,3.20
2023-09-09T13:55:50.385Z,3.27
2023-09-09T13:58:16.986Z,3.30
2023-09-09T14:00:43.680Z,3.07
2023-09-09T14:03:10.450Z,3.30
2023-09-09T14:05:37.137Z,3.40
2023-09-09T14:08:03.902Z,3.00
2023-09-09T14:10:34.935Z,3.13
2023-09-09T14:13:01.590Z,3.13
2023-09-09T14:15:28.241Z,3.60
2023-09-09T14:17:54.909Z,3.60
2023-09-09T14:20:21.621Z,3.40
2023-09-09T14:22:49.816Z,3.20
2023-09-09T14:25:16.556Z,3.30
2023-09-09T14:27:43.889Z,3.13
2023-09-09T14:30:11.117Z,3.00
2023-09-09T14:32:37.886Z,2.87
2023-09-09T14:35:04.861Z,3.30
2023-09-09T14:37:32.217Z,2.90
2023-09-09T14:39:58.803Z,3.37
2023-09-09T14:42:25.532Z,3.60
2023-09-09T14:44:52.145Z,3.03
2023-09-09T14:47:18.742Z,3.40
2023-09-09T14:49:45.436Z,2.80
2023-09-09T14:52:12.673Z,3.07
2023-09-09T14:54:39.444Z,2.73
2023-09-09T14:57:06.144Z,2.60
2023-09-09T14:59:35.209Z,2.90
2023-09-09T15:02:01.859Z,2.93
2023-09-09T15:04:28.940Z,2.90
2023-09-09T15:06:55.638Z,3.17
2023-09-09T15:09:22.334Z,3.07
2023-09-09T15:11:49.037Z,3.13
2023-09-09T15:14:16.522Z,3.30
2023-09-09T15:16:54.848Z,2.77
2023-09-09T15:19:21.626Z,3.17
2023-09-09T15:21:48.364Z,3.27
2023-09-09T15:24:15.434Z,3.47
2023-09-09T15:26:42.056Z,3.00
2023-09-09T15:29:08.782Z,2.83
2023-09-09T15:31:35.729Z,3.50
2023-09-09T15:34:02.799Z,2.60
2023-09-09T15:36:29.483Z,2.83
2023-09-09T15:38:56.165Z,2.87
2023-09-09T15:41:24.324Z,3.13
2023-09-09T15:43:52.026Z,2.70
2023-09-09T15:49:10.323Z,2.90
2023-09-09T15:51:36.966Z,3.03
2023-09-09T15:54:03.941Z,2.77
2023-09-09T15:56:30.573Z,2.77
2023-09-09T15:58:57.290Z,3.00
2023-09-09T16:01:24.079Z,2.80
2023-09-09T16:03:50.809Z,2.83
2023-09-09T16:06:17.527Z,3.13
2023-09-09T16:08:44.286Z,2.67
2023-09-09T16:11:10.977Z,3.03
2023-09-09T16:13:37.716Z,3.13
2023-09-09T16:16:09.882Z,2.80
2023-09-09T16:18:39.356Z,2.70
2023-09-09T16:21:06.818Z,2.50
2023-09-09T16:23:33.648Z,2.53
2023-09-09T16:26:00.318Z,3.00
2023-09-09T16:28:26.975Z,2.67
2023-09-09T16:30:53.896Z,2.83
2023-09-09T16:33:20.520Z,2.50
2023-09-09T16:35:47.366Z,2.50
2023-09-09T16:38:14.093Z,3.20
2023-09-09T16:40:40.870Z,2.93
2023-09-09T16:43:07.621Z,3.00
2023-09-09T16:45:34.354Z,2.53
2023-09-09T16:48:04.567Z,2.73
2023-09-09T16:50:31.546Z,2.57
2023-09-09T16:52:58.450Z,2.67
2023-09-09T16:55:25.353Z,2.80
2023-09-09T16:57:51.991Z,2.70
2023-09-09T17:00:18.736Z,2.63
2023-09-09T17:02:45.564Z,2.67
2023-09-09T17:05:12.261Z,2.67
2023-09-09T17:07:38.929Z,2.50
2023-09-09T17:10:06.317Z,2.70
2023-09-09T17:12:32.935Z,2.73
2023-09-09T17:14:59.679Z,2.57
2023-09-09T17:17:26.303Z,2.87
2023-09-09T17:19:53.043Z,2.73
2023-09-09T17:22:19.771Z,2.77
2023-09-09T17:24:48.995Z,2.83
2023-09-09T17:27:15.834Z,2.70
2023-09-09T17:29:43.875Z,2.60
2023-09-09T17:32:10.854Z,2.73
2023-09-09T17:34:42.440Z,2.57
2023-09-09T17:37:10.222Z,3.00
2023-09-09T17:39:36.892Z,2.50
2023-09-09T17:42:03.664Z,2.60
2023-09-09T17:44:30.749Z,2.40
2023-09-09T17:46:57.593Z,2.50
2023-09-09T17:49:26.657Z,2.90
2023-09-09T17:51:56.489Z,2.43
2023-09-09T17:54:26.552Z,2.77
2023-09-09T17:56:55.680Z,2.40
2023-09-09T17:59:22.598Z,2.70
2023-09-09T18:01:49.825Z,2.73
2023-09-09T18:04:16.974Z,2.80
2023-09-09T18:06:43.809Z,2.40
2023-09-09T18:09:10.727Z,2.80
2023-09-09T18:11:37.442Z,2.70
2023-09-09T18:14:04.066Z,2.47
2023-09-09T18:16:32.258Z,2.80
2023-09-09T18:18:59.156Z,2.70
2023-09-09T18:21:25.806Z,2.80
2023-09-09T18:23:53.403Z,2.50
2023-09-09T18:26:20.250Z,2.57
2023-09-09T18:28:47.030Z,2.60
2023-09-09T18:31:14.819Z,2.40
2023-09-09T18:33:41.705Z,2.90
2023-09-09T18:36:08.518Z,2.63
2023-09-09T18:38:35.307Z,3.30
2023-09-09T18:41:04.001Z,3.03
2023-09-09T18:43:31.181Z,3.00
2023-09-09T18:45:59.413Z,2.90
2023-09-09T18:48:26.412Z,2.60
2023-09-09T18:50:53.152Z,2.70
2023-09-09T18:53:20.884Z,2.50
2023-09-09T18:55:47.773Z,2.40
2023-09-09T18:58:14.604Z,2.30
2023-09-09T19:00:41.290Z,2.30
2023-09-09T19:03:08.072Z,2.87
2023-09-09T19:05:34.945Z,2.43
2023-09-09T19:08:01.829Z,2.40
2023-09-09T19:10:28.606Z,2.47
2023-09-09T19:12:55.304Z,2.60
2023-09-09T19:15:24.270Z,2.40
2023-09-09T19:17:51.391Z,2.70
2023-09-09T19:20:18.226Z,2.70
2023-09-09T19:22:45.665Z,2.70
2023-09-09T19:25:12.395Z,2.40
2023-09-09T19:27:39.192Z,2.60
2023-09-09T19:30:06.642Z,3.07
2023-09-09T19:32:33.544Z,2.97
2023-09-09T19:35:00.454Z,2.57
2023-09-09T19:37:27.213Z,3.00
2023-09-09T19:40:00.982Z,2.27
2023-09-09T19:42:28.797Z,2.67
2023-09-09T19:44:57.579Z,2.47
2023-09-09T19:47:26.253Z,2.47
2023-09-09T19:49:55.931Z,2.40
2023-09-09T19:52:22.924Z,2.70
2023-09-09T19:54:49.740Z,2.53
2023-09-09T19:57:16.467Z,2.60
2023-09-09T19:59:43.194Z,2.50
2023-09-09T20:02:09.850Z,2.47
2023-09-09T20:04:36.658Z,3.00
2023-09-09T20:07:03.749Z,2.30
2023-09-09T20:09:30.450Z,2.30
2023-09-09T20:11:57.141Z,2.93
2023-09-09T20:14:26.144Z,3.10
2023-09-09T20:16:52.824Z,2.30
2023-09-09T20:19:19.574Z,2.40
2023-09-09T20:21:46.274Z,2.47
2023-09-09T20:24:12.958Z,2.60
2023-09-09T20:26:39.638Z,2.50
2023-09-09T20:29:07.011Z,2.50
2023-09-09T20:31:33.920Z,2.50
2023-09-09T20:34:00.735Z,2.80
2023-09-09T20:36:27.326Z,2.60
2023-09-09T20:38:53.984Z,2.73
2023-09-09T20:41:20.681Z,2.53
2023-09-09T20:43:47.348Z,2.90
2023-09-09T20:46:14.510Z,2.43
2023-09-09T20:48:42.393Z,2.93
2023-09-09T20:51:09.027Z,2.40
2023-09-09T20:53:35.976Z,2.60
2023-09-09T20:56:13.169Z,2.23
2023-09-09T20:58:41.510Z,2.50
2023-09-09T21:01:09.452Z,2.50
2023-09-09T21:03:36.383Z,2.40
2023-09-09T21:06:03.493Z,2.40
2023-09-09T21:08:30.400Z,2.73
2023-09-09T21:10:57.135Z,2.97
2023-09-09T21:13:24.352Z,3.10
2023-09-09T21:15:51.552Z,2.60
2023-09-09T21:18:18.733Z,2.60
2023-09-09T21:20:45.750Z,2.80
2023-09-09T21:23:13.064Z,2.30
2023-09-09T21:25:41.268Z,2.57
2023-09-09T21:28:08.644Z,2.73
2023-09-09T21:30:35.715Z,2.70
2023-09-09T21:33:02.561Z,2.60
2023-09-09T21:35:29.422Z,2.73
2023-09-09T21:37:56.137Z,2.77
2023-09-09T21:40:22.827Z,3.27
2023-09-09T21:42:49.427Z,2.50
2023-09-09T21:45:16.269Z,2.70
2023-09-09T21:47:43.015Z,2.80
2023-09-09T21:50:09.974Z,2.50
2023-09-09T21:52:36.676Z,2.90
2023-09-09T21:55:03.391Z,2.70
2023-09-09T21:57:30.017Z,2.70
2023-09-09T21:59:58.685Z,2.60
2023-09-09T22:02:25.543Z,2.63
2023-09-09T22:04:52.216Z,2.33
2023-09-09T22:07:20.511Z,2.80
2023-09-09T22:09:47.758Z,2.50
2023-09-09T22:12:14.426Z,3.00
2023-09-09T22:14:41.037Z,2.57
2023-09-09T22:17:07.806Z,2.57
2023-09-09T22:19:34.570Z,2.50
2023-09-09T22:22:01.177Z,3.00
2023-09-09T22:24:27.797Z,2.87
2023-09-09T22:26:57.144Z,3.10
2023-09-09T22:29:23.801Z,3.00
2023-09-09T22:31:50.467Z,3.00
2023-09-09T22:34:17.119Z,2.47
2023-09-09T22:36:43.715Z,3.07
2023-09-09T22:39:10.876Z,2.50
2023-09-09T22:41:37.571Z,3.00
2023-09-09T22:44:04.497Z,2.70
2023-09-09T22:46:31.257Z,2.90
2023-09-09T22:48:57.929Z,2.53
2023-09-09T22:51:25.645Z,2.73
2023-09-09T22:53:53.334Z,2.93
2023-09-09T22:56:20.221Z,2.77
2023-09-09T22:58:47.224Z,2.60
2023-09-09T23:01:17.728Z,2.93
2023-09-09T23:03:44.828Z,3.23
2023-09-09T23:06:11.645Z,2.60
2023-09-09T23:08:38.565Z,2.60
2023-09-09T23:11:13.561Z,2.60
2023-09-09T23:13:41.797Z,2.77
2023-09-09T23:16:08.776Z,3.13
2023-09-09T23:18:37.392Z,3.07
2023-09-09T23:21:04.610Z,3.10
2023-09-09T23:23:31.303Z,2.97
2023-09-09T23:25:59.620Z,2.57
2023-09-09T23:28:26.735Z,2.70
2023-09-09T23:31:01.317Z,2.70
2023-09-09T23:33:31.820Z,2.80
2023-09-09T23:36:02.625Z,2.47
2023-09-09T23:38:29.681Z,2.87
2023-09-09T23:40:56.496Z,2.90
2023-09-09T23:43:23.266Z,2.67
2023-09-09T23:45:49.896Z,2.87
2023-09-09T23:48:16.640Z,2.80
2023-09-09T23:50:43.366Z,3.00
2023-09-09T23:53:10.086Z,2.90
2023-09-09T23:55:36.764Z,2.73
2023-09-09T23:58:03.533Z,3.03
